Time;durP1;ratioP1;P1;durP2;ratioP2;P2;SDS_P1;SDS_P2;PMS_P1;PMS_P2;Temp;Humidity;BMP_temperature;BMP_pressure;BME280_temperature;BME280_humidity;BME280_pressure;Samples;Min_cycle;Max_cycle;Signal;HPM_P1;HPM_P2
2022/04/18 00:02:07;;;;;;;9.17;6.63;;;9.10;99.90;;;;;;4929858;29;20756;-69
2022/04/18 00:04:33;;;;;;;13.83;7.80;;;9.10;99.90;;;;;;4931044;29;20291;-69
2022/04/18 00:07:00;;;;;;;14.37;8.03;;;9.10;99.90;;;;;;4932353;29;20622;-69
2022/04/18 00:09:26;;;;;;;12.80;8.00;;;9.00;99.90;;;;;;4932264;29;20203;-69
2022/04/18 00:11:51;;;;;;;10.40;7.33;;;9.00;99.90;;;;;;4915557;29;20200;-69
2022/04/18 00:14:17;;;;;;;10.63;7.53;;;9.00;99.90;;;;;;4933444;29;20216;-69
2022/04/18 00:16:42;;;;;;;12.67;7.70;;;8.90;99.90;;;;;;4935624;29;20200;-69
2022/04/18 00:19:08;;;;;;;13.67;8.37;;;8.90;99.90;;;;;;4922091;29;89537;-69
2022/04/18 00:21:33;;;;;;;11.90;8.10;;;8.90;99.90;;;;;;4914450;29;20191;-69
2022/04/18 00:23:59;;;;;;;10.70;7.83;;;8.90;99.90;;;;;;4936982;29;20617;-69
2022/04/18 00:26:25;;;;;;;16.47;9.23;;;8.80;99.90;;;;;;4936913;29;20212;-69
2022/04/18 00:28:50;;;;;;;10.33;7.43;;;8.70;99.90;;;;;;4936253;29;20306;-68
2022/04/18 00:31:16;;;;;;;12.30;8.07;;;8.60;99.90;;;;;;4936863;29;20191;-69
2022/04/18 00:33:41;;;;;;;10.63;7.53;;;8.60;99.90;;;;;;4915385;29;20184;-68
2022/04/18 00:36:07;;;;;;;15.03;8.30;;;8.50;99.90;;;;;;4936845;29;20645;-69
2022/04/18 00:38:32;;;;;;;10.83;7.27;;;8.50;99.90;;;;;;4935951;29;20262;-69
2022/04/18 00:40:58;;;;;;;11.80;8.67;;;8.40;99.90;;;;;;4936742;29;20215;-69
2022/04/18 00:43:47;;;;;;;12.80;7.80;;;8.40;99.90;;;;;;4936605;29;20584;-68
2022/04/18 00:46:14;;;;;;;12.07;8.30;;;8.40;99.90;;;;;;4936788;29;20223;-69
2022/04/18 00:48:40;;;;;;;11.00;7.27;;;8.40;99.90;;;;;;4918976;29;20243;-69
2022/04/18 00:51:09;;;;;;;9.43;7.00;;;8.50;99.90;;;;;;4936314;29;20227;-69
2022/04/18 00:53:37;;;;;;;11.47;7.57;;;8.40;99.90;;;;;;4936435;29;20267;-69
2022/04/18 00:56:04;;;;;;;11.47;8.03;;;8.40;99.90;;;;;;4936480;29;20707;-69
2022/04/18 00:58:30;;;;;;;12.83;8.73;;;8.30;99.90;;;;;;4918321;29;20838;-69
2022/04/18 01:00:56;;;;;;;14.67;8.83;;;8.30;99.90;;;;;;4936932;29;20184;-70
2022/04/18 01:03:22;;;;;;;14.47;9.00;;;8.20;99.90;;;;;;4931608;29;20216;-69
2022/04/18 01:05:48;;;;;;;12.40;8.23;;;8.20;99.90;;;;;;4936306;29;20219;-69
2022/04/18 01:08:14;;;;;;;10.70;8.07;;;8.10;99.90;;;;;;4935317;29;20270;-69
2022/04/18 01:10:39;;;;;;;13.47;8.93;;;8.00;99.90;;;;;;4936040;29;20215;-69
2022/04/18 01:13:05;;;;;;;14.93;9.27;;;7.90;99.90;;;;;;4936041;29;20180;-69
2022/04/18 01:15:30;;;;;;;11.80;8.70;;;7.80;99.90;;;;;;4936527;29;20187;-69
2022/04/18 01:17:56;;;;;;;14.50;9.17;;;7.90;99.90;;;;;;4918629;29;20200;-69
2022/04/18 01:20:22;;;;;;;15.00;9.40;;;7.90;99.90;;;;;;4935593;29;20258;-68
2022/04/18 01:22:51;;;;;;;14.83;9.23;;;7.80;99.90;;;;;;4936025;29;20821;-69
2022/04/18 01:30:55;;;;;;;14.97;9.13;;;7.90;99.90;;;;;;4923363;29;20282;-69
2022/04/18 01:33:21;;;;;;;12.80;9.20;;;7.80;99.90;;;;;;4931071;29;20681;-68
2022/04/18 01:35:47;;;;;;;17.27;10.73;;;7.80;99.90;;;;;;4918846;29;20203;-69
2022/04/18 01:38:13;;;;;;;17.33;10.27;;;7.80;99.90;;;;;;4934941;29;20680;-69
2022/04/18 01:40:38;;;;;;;15.83;10.00;;;7.70;99.90;;;;;;4935643;29;20703;-69
2022/04/18 01:43:04;;;;;;;17.87;10.07;;;7.70;99.90;;;;;;4918513;29;20188;-69
2022/04/18 01:45:30;;;;;;;14.60;9.67;;;7.70;99.90;;;;;;4936019;29;20184;-69
2022/04/18 01:47:55;;;;;;;13.20;8.97;;;7.70;99.90;;;;;;4935109;29;20567;-69
2022/04/18 01:50:21;;;;;;;15.13;8.40;;;7.80;99.90;;;;;;4935110;29;20270;-69
2022/04/18 01:52:46;;;;;;;13.33;7.90;;;7.80;99.90;;;;;;4935454;29;20211;-69
2022/04/18 01:55:12;;;;;;;12.30;7.60;;;7.80;99.90;;;;;;4935540;29;20208;-69
2022/04/18 01:57:37;;;;;;;13.30;7.83;;;7.80;99.90;;;;;;4935725;29;20606;-69
2022/04/18 02:00:04;;;;;;;10.70;8.60;;;7.70;99.90;;;;;;4917518;29;20299;-69
2022/04/18 02:02:29;;;;;;;14.03;7.67;;;7.70;99.90;;;;;;4930514;29;20216;-69
2022/04/18 02:04:55;;;;;;;14.07;8.53;;;7.60;99.90;;;;;;4918485;29;20267;-69
2022/04/18 02:07:21;;;;;;;14.87;7.63;;;7.70;99.90;;;;;;4935449;29;20232;-69
2022/04/18 02:09:46;;;;;;;11.10;7.90;;;7.60;99.90;;;;;;4920034;29;20267;-69
2022/04/18 02:12:12;;;;;;;10.90;7.67;;;7.50;99.90;;;;;;4935665;29;20216;-70
2022/04/18 02:14:37;;;;;;;9.63;7.30;;;7.50;99.90;;;;;;4896943;29;20216;-69
2022/04/18 02:17:03;;;;;;;15.57;8.50;;;7.30;99.90;;;;;;4918293;29;20219;-71
2022/04/18 02:19:29;;;;;;;15.80;7.70;;;7.20;99.90;;;;;;4916901;29;20251;-70
2022/04/18 02:21:54;;;;;;;12.90;7.47;;;7.20;99.90;;;;;;4919561;29;20219;-70
2022/04/18 02:24:19;;;;;;;10.17;6.90;;;7.30;99.90;;;;;;4902845;29;20216;-71
2022/04/18 02:26:45;;;;;;;12.03;7.53;;;7.20;99.90;;;;;;4919700;29;20243;-71
2022/04/18 02:29:10;;;;;;;11.67;8.23;;;7.10;99.90;;;;;;4918544;29;20223;-70
2022/04/18 02:32:47;;;;;;;11.70;8.23;;;7.10;99.90;;;;;;4916222;29;20300;-71
2022/04/18 02:34:21;;;;;;;15.60;8.53;;;7.10;99.90;;;;;;4917407;29;20232;-69
2022/04/18 02:36:47;;;;;;;13.33;8.00;;;7.00;99.90;;;;;;4918332;29;20189;-70
2022/04/18 02:39:12;;;;;;;11.23;7.20;;;7.00;99.90;;;;;;4917111;29;20216;-71
2022/04/18 02:41:39;;;;;;;10.80;7.07;;;6.90;99.90;;;;;;4900302;29;20215;-70
2022/04/18 02:44:05;;;;;;;11.03;7.63;;;6.80;99.90;;;;;;4915383;29;20216;-71
2022/04/18 02:46:30;;;;;;;10.50;7.00;;;6.90;99.90;;;;;;4916639;29;20219;-69
2022/04/18 02:48:56;;;;;;;11.40;7.83;;;6.90;99.90;;;;;;4917271;29;20286;-69
2022/04/18 02:51:27;;;;;;;10.53;7.80;;;6.80;99.90;;;;;;4917490;29;20209;-69
2022/04/18 02:53:56;;;;;;;11.00;7.37;;;6.90;99.90;;;;;;4916971;29;20200;-69
2022/04/18 02:56:22;;;;;;;11.80;8.00;;;6.90;99.90;;;;;;4915158;29;20212;-67
2022/04/18 02:58:47;;;;;;;9.20;7.07;;;6.70;99.90;;;;;;4897403;29;20587;-69
2022/04/18 03:01:13;;;;;;;12.37;7.47;;;6.80;99.90;;;;;;4915174;29;20212;-69
2022/04/18 03:03:38;;;;;;;9.70;6.93;;;6.60;99.90;;;;;;4915314;29;20188;-69
2022/04/18 03:06:05;;;;;;;10.43;6.97;;;6.60;99.90;;;;;;4898200;29;20306;-69
2022/04/18 03:08:31;;;;;;;13.03;7.33;;;6.60;99.90;;;;;;4914085;29;20244;-69
2022/04/18 03:11:03;;;;;;;14.97;8.93;;;6.60;99.90;;;;;;4915120;29;20223;-69
2022/04/18 03:13:29;;;;;;;10.27;7.07;;;6.60;99.90;;;;;;4913052;29;20220;-69
2022/04/18 03:15:55;;;;;;;11.10;7.33;;;6.70;99.90;;;;;;4898501;29;20212;-69
2022/04/18 03:18:20;;;;;;;13.43;8.17;;;6.80;99.90;;;;;;4917466;29;20740;-69
2022/04/18 03:20:46;;;;;;;11.30;7.20;;;6.70;99.90;;;;;;4907206;29;20208;-69
2022/04/18 03:23:11;;;;;;;12.73;8.07;;;6.60;99.90;;;;;;4914908;29;20212;-69
2022/04/18 03:25:37;;;;;;;9.60;7.23;;;6.60;99.90;;;;;;4914593;29;20251;-69
2022/04/18 03:28:03;;;;;;;13.77;7.77;;;6.70;99.90;;;;;;4914178;29;20685;-69
2022/04/18 03:30:29;;;;;;;11.83;7.10;;;6.60;99.90;;;;;;4905732;29;20184;-68
2022/04/18 03:32:54;;;;;;;10.87;7.40;;;6.50;99.90;;;;;;4914854;29;20231;-69
2022/04/18 03:35:19;;;;;;;10.90;7.20;;;6.40;99.90;;;;;;4914776;29;20709;-69
2022/04/18 03:40:29;;;;;;;10.40;6.50;;;6.40;99.90;;;;;;4914476;29;20227;-69
2022/04/18 03:42:55;;;;;;;10.93;6.97;;;6.40;99.90;;;;;;4915229;29;20180;-68
2022/04/18 03:45:20;;;;;;;11.40;7.50;;;6.30;99.90;;;;;;4915994;29;20253;-69
2022/04/18 03:47:46;;;;;;;11.10;7.53;;;6.40;99.90;;;;;;4906530;29;20697;-69
2022/04/18 03:50:11;;;;;;;11.53;7.20;;;6.20;99.90;;;;;;4907318;29;20231;-68
2022/04/18 03:52:37;;;;;;;11.00;6.93;;;6.10;99.90;;;;;;4909272;29;20220;-68
2022/04/18 03:55:02;;;;;;;11.03;7.67;;;6.10;99.90;;;;;;4918383;29;20230;-69
2022/04/18 03:57:28;;;;;;;10.00;7.37;;;6.20;99.90;;;;;;4918868;29;20211;-69
2022/04/18 03:59:53;;;;;;;10.87;7.40;;;6.20;99.90;;;;;;4917746;29;20779;-69
2022/04/18 04:02:19;;;;;;;10.70;7.20;;;6.20;99.90;;;;;;4918311;29;20256;-68
2022/04/18 04:04:44;;;;;;;12.50;7.93;;;6.20;99.90;;;;;;4909039;29;20247;-69
2022/04/18 04:07:10;;;;;;;12.50;7.73;;;6.20;99.90;;;;;;4918149;29;20211;-69
2022/04/18 04:09:36;;;;;;;11.70;7.20;;;6.20;99.90;;;;;;4908466;29;20200;-68
2022/04/18 04:12:03;;;;;;;11.67;7.90;;;6.30;99.90;;;;;;4917139;29;20200;-69
2022/04/18 04:14:28;;;;;;;13.47;8.23;;;6.20;99.90;;;;;;4915298;28;20216;-68
2022/04/18 04:16:54;;;;;;;11.33;7.30;;;6.30;99.90;;;;;;4918125;29;20216;-69
2022/04/18 04:19:19;;;;;;;16.47;10.27;;;6.30;99.90;;;;;;4933477;23;20605;-67
2022/04/18 04:21:45;;;;;;;38.00;19.23;;;6.30;99.90;;;;;;4937633;29;20188;-67
2022/04/18 04:24:11;;;;;;;26.93;14.50;;;6.20;99.90;;;;;;4919908;29;20715;-67
2022/04/18 04:26:36;;;;;;;16.00;8.63;;;6.20;99.90;;;;;;4936715;29;20230;-67
2022/04/18 04:29:02;;;;;;;11.93;7.90;;;6.10;99.90;;;;;;4935078;29;20226;-67
2022/04/18 04:31:27;;;;;;;13.23;8.13;;;6.10;99.90;;;;;;4936146;29;20270;-69
2022/04/18 04:33:53;;;;;;;12.67;7.60;;;6.30;99.90;;;;;;4920361;29;20190;-67
2022/04/18 04:36:18;;;;;;;13.13;8.03;;;7.20;99.90;;;;;;4936950;29;20219;-69
2022/04/18 04:38:44;;;;;;;11.63;7.40;;;8.70;99.90;;;;;;4935986;29;20740;-67
2022/04/18 04:41:09;;;;;;;11.90;7.60;;;9.80;99.90;;;;;;4921421;29;20215;-67
2022/04/18 04:43:35;;;;;;;13.33;7.37;;;10.70;99.90;;;;;;4936587;29;20245;-67
2022/04/18 04:46:00;;;;;;;11.67;7.57;;;10.30;99.90;;;;;;4936601;29;20671;-68
2022/04/18 04:48:26;;;;;;;11.63;6.80;;;10.20;99.90;;;;;;4917447;29;20299;-68
2022/04/18 04:50:52;;;;;;;11.47;7.60;;;11.50;99.90;;;;;;4936494;29;20735;-67
2022/04/18 04:53:18;;;;;;;13.60;7.60;;;12.70;99.90;;;;;;4936848;29;20237;-67
2022/04/18 04:55:44;;;;;;;11.63;7.57;;;13.40;99.90;;;;;;4919243;29;20235;-67
2022/04/18 04:58:10;;;;;;;14.43;8.20;;;14.40;99.90;;;;;;4918770;29;20717;-67
2022/04/18 05:00:37;;;;;;;14.73;8.32;;;14.70;99.90;;;;;;4935814;29;20218;-68
2022/04/18 05:03:03;;;;;;;11.40;7.55;;;15.30;99.90;;;;;;4936311;29;20242;-68
2022/04/18 05:05:29;;;;;;;11.02;7.68;;;15.70;99.90;;;;;;4936269;29;20215;-68
2022/04/18 05:07:55;;;;;;;9.63;7.55;;;15.60;99.90;;;;;;4918541;29;20220;-68
2022/04/18 05:10:21;;;;;;;10.52;7.38;;;15.70;99.90;;;;;;4935693;29;20232;-68
2022/04/18 05:12:47;;;;;;;9.15;7.10;;;16.30;99.90;;;;;;4919630;29;20214;-68
2022/04/18 05:15:12;;;;;;;9.32;7.45;;;17.00;99.90;;;;;;4936014;29;20230;-68
2022/04/18 05:17:38;;;;;;;11.30;7.55;;;17.80;99.90;;;;;;4935722;29;20211;-68
2022/04/18 05:20:04;;;;;;;10.93;7.57;;;18.50;99.90;;;;;;4935163;29;20231;-68
2022/04/18 05:22:30;;;;;;;10.57;7.50;;;19.20;99.90;;;;;;4935973;29;20211;-68
2022/04/18 05:24:56;;;;;;;9.63;7.05;;;19.60;99.90;;;;;;4936455;29;20180;-68
2022/04/18 05:27:22;;;;;;;11.30;8.13;;;19.60;99.10;;;;;;4935745;29;20215;-68
2022/04/18 05:29:47;;;;;;;12.20;7.78;;;19.80;98.10;;;;;;4934613;29;20234;-68
2022/04/18 05:32:13;;;;;;;9.75;6.93;;;19.50;97.20;;;;;;4935812;29;20223;-68
2022/04/18 05:34:38;;;;;;;11.75;8.68;;;19.40;96.80;;;;;;4918464;29;20212;-68
2022/04/18 05:37:04;;;;;;;11.85;7.55;;;19.40;97.00;;;;;;4935659;29;20675;-69
2022/04/18 05:39:30;;;;;;;10.98;7.93;;;20.20;96.30;;;;;;4935169;29;20629;-69
2022/04/18 05:41:56;;;;;;;11.88;7.72;;;21.40;94.40;;;;;;4935659;29;20279;-68
2022/04/18 05:44:25;;;;;;;10.88;8.00;;;21.70;92.80;;;;;;4918242;29;20250;-68
2022/04/18 05:46:51;;;;;;;11.23;8.05;;;21.40;92.10;;;;;;4935394;29;20231;-68
2022/04/18 05:49:16;;;;;;;9.93;8.10;;;21.80;91.70;;;;;;4934552;29;20251;-68
2022/04/18 05:51:42;;;;;;;15.02;9.10;;;22.10;90.60;;;;;;4918625;29;20176;-68
2022/04/18 05:54:08;;;;;;;12.23;9.23;;;22.00;90.20;;;;;;4935460;29;20453;-68
2022/04/18 05:56:34;;;;;;;13.18;8.75;;;21.10;90.30;;;;;;4918172;29;20657;-68
2022/04/18 05:59:00;;;;;;;11.02;8.25;;;21.40;90.00;;;;;;4917415;29;20215;-68
2022/04/18 06:01:25;;;;;;;13.75;9.30;;;21.50;90.20;;;;;;4934534;29;20625;-68
2022/04/18 06:03:51;;;;;;;11.88;8.85;;;20.90;90.00;;;;;;4918617;29;20186;-68
2022/04/18 06:06:16;;;;;;;12.45;9.13;;;20.60;90.10;;;;;;4935200;29;20212;-68
2022/04/18 06:08:42;;;;;;;14.70;9.27;;;20.10;90.90;;;;;;4934105;29;20226;-68
2022/04/18 06:11:07;;;;;;;12.23;9.77;;;20.20;91.00;;;;;;4935108;29;20215;-68
2022/04/18 06:13:33;;;;;;;14.07;9.75;;;21.50;90.00;;;;;;4934104;29;20215;-69
2022/04/18 06:15:59;;;;;;;12.00;9.88;;;22.30;85.90;;;;;;4933484;29;20180;-69
2022/04/18 06:18:25;;;;;;;16.33;10.43;;;23.10;84.30;;;;;;4917444;29;20282;-69
2022/04/18 06:20:51;;;;;;;14.40;10.65;;;23.20;82.60;;;;;;4934750;29;20267;-69
2022/04/18 06:23:16;;;;;;;14.52;10.77;;;22.60;82.00;;;;;;4935000;29;20214;-69
2022/04/18 06:25:45;;;;;;;16.50;11.07;;;23.10;80.70;;;;;;4934675;29;20219;-69
2022/04/18 06:28:12;;;;;;;15.18;10.52;;;23.00;80.10;;;;;;4933999;29;20227;-69
2022/04/18 06:30:37;;;;;;;15.00;10.68;;;22.80;80.00;;;;;;4934590;29;20608;-69
2022/04/18 06:33:03;;;;;;;15.38;11.27;;;21.40;80.40;;;;;;4917548;29;20204;-69
2022/04/18 06:35:28;;;;;;;15.25;11.45;;;22.90;80.50;;;;;;4934474;29;20582;-69
2022/04/18 06:37:54;;;;;;;13.85;10.52;;;23.70;77.20;;;;;;4934270;29;20744;-69
2022/04/18 06:40:19;;;;;;;10.70;9.32;;;22.80;77.50;;;;;;4934214;29;20218;-68
2022/04/18 06:42:45;;;;;;;12.55;8.82;;;20.10;80.90;;;;;;4917796;29;20259;-69
2022/04/18 06:45:11;;;;;;;17.73;10.55;;;20.20;83.60;;;;;;4934551;29;20216;-69
2022/04/18 06:47:36;;;;;;;11.77;9.27;;;20.90;82.20;;;;;;4917184;29;20223;-69
2022/04/18 06:50:06;;;;;;;13.82;9.82;;;20.00;81.20;;;;;;4916455;29;20582;-69
2022/04/18 06:52:42;;;;;;;13.77;10.05;;;20.30;83.40;;;;;;4917301;29;20211;-69
2022/04/18 06:55:08;;;;;;;12.13;8.98;;;21.60;82.20;;;;;;4934446;29;20176;-67
2022/04/18 06:57:35;;;;;;;15.23;9.73;;;22.30;79.30;;;;;;4934473;29;20179;-67
2022/04/18 07:00:03;;;;;;;14.23;10.00;;;22.90;78.10;;;;;;4933110;29;20234;-68
2022/04/18 07:02:29;;;;;;;17.77;13.07;;;23.40;76.50;;;;;;4934429;29;20215;-68
2022/04/18 07:04:54;;;;;;;13.98;9.45;;;22.80;76.20;;;;;;4934124;29;20246;-68
2022/04/18 07:07:20;;;;;;;15.50;12.02;;;22.40;77.80;;;;;;4917281;29;20211;-68
2022/04/18 07:09:45;;;;;;;14.77;10.43;;;21.90;77.30;;;;;;4934084;29;20211;-68
2022/04/18 07:12:11;;;;;;;10.38;7.55;;;21.70;78.90;;;;;;4934100;29;20219;-68
2022/04/18 07:14:37;;;;;;;9.13;7.55;;;20.00;80.10;;;;;;4933800;29;20203;-68
2022/04/18 07:17:09;;;;;;;11.32;7.95;;;21.30;81.50;;;;;;4934109;29;20211;-68
2022/04/18 07:19:35;;;;;;;12.65;7.80;;;20.40;81.10;;;;;;4933047;29;20278;-68
2022/04/18 07:22:02;;;;;;;10.25;7.03;;;21.30;81.40;;;;;;4933983;29;20586;-68
2022/04/18 07:24:27;;;;;;;11.32;7.70;;;22.10;77.40;;;;;;4934265;29;20176;-68
2022/04/18 07:26:53;;;;;;;8.93;6.70;;;23.70;76.00;;;;;;4933949;29;20204;-68
2022/04/18 07:29:19;;;;;;;7.35;5.90;;;25.10;72.70;;;;;;4932533;29;20219;-69
2022/04/18 07:31:44;;;;;;;9.40;6.28;;;25.30;70.00;;;;;;4916706;29;20262;-68
2022/04/18 07:34:10;;;;;;;9.57;6.43;;;24.90;68.90;;;;;;4916651;29;20202;-68
2022/04/18 07:36:35;;;;;;;8.85;6.43;;;25.30;68.70;;;;;;4916998;29;20555;-68
2022/04/18 07:39:01;;;;;;;9.07;6.90;;;24.20;69.80;;;;;;4933096;29;20236;-68
2022/04/18 07:41:28;;;;;;;9.07;7.30;;;25.40;69.30;;;;;;4933343;29;20212;-69
2022/04/18 07:43:56;;;;;;;7.30;6.40;;;25.90;67.90;;;;;;4933651;29;20693;-68
2022/04/18 07:46:21;;;;;;;9.20;6.82;;;24.50;68.10;;;;;;4933485;29;20255;-68
2022/04/18 07:48:51;;;;;;;7.97;6.70;;;24.40;69.70;;;;;;4916216;29;20257;-68
2022/04/18 07:51:36;;;;;;;7.55;6.28;;;24.70;68.80;;;;;;4933666;29;20224;-68
2022/04/18 07:54:12;;;;;;;7.50;5.72;;;24.80;68.60;;;;;;4933689;29;20203;-68
2022/04/18 07:56:37;;;;;;;7.85;6.35;;;24.20;67.80;;;;;;4933445;29;20211;-68
2022/04/18 07:59:05;;;;;;;6.85;5.43;;;24.40;67.80;;;;;;4932980;29;20219;-68
2022/04/18 08:01:31;;;;;;;10.23;5.60;;;24.70;68.10;;;;;;4916233;29;20688;-68
2022/04/18 08:04:00;;;;;;;5.88;4.53;;;25.20;66.80;;;;;;4934101;29;20183;-68
2022/04/18 08:06:26;;;;;;;6.05;4.90;;;25.40;65.40;;;;;;4933728;29;20705;-68
2022/04/18 08:08:51;;;;;;;10.07;5.07;;;24.70;65.40;;;;;;4932441;29;20254;-68
2022/04/18 08:11:17;;;;;;;7.15;5.30;;;23.80;66.90;;;;;;4916603;29;20216;-68
2022/04/18 08:13:43;;;;;;;8.52;5.35;;;23.80;67.40;;;;;;4916315;29;20219;-69
2022/04/18 08:16:10;;;;;;;5.55;4.65;;;23.70;69.00;;;;;;4933551;29;20254;-69
2022/04/18 08:18:38;;;;;;;7.00;4.50;;;24.00;68.30;;;;;;4933021;29;20661;-68
2022/04/18 08:21:04;;;;;;;6.38;4.53;;;24.40;67.30;;;;;;4916327;29;20228;-68
2022/04/18 08:23:33;;;;;;;5.47;4.40;;;22.60;67.20;;;;;;4933253;29;20331;-68
2022/04/18 08:25:59;;;;;;;7.00;4.57;;;22.40;68.70;;;;;;4933157;29;20223;-69
2022/04/18 08:28:26;;;;;;;5.90;4.50;;;21.90;70.40;;;;;;4932506;29;20625;-69
2022/04/18 08:30:51;;;;;;;6.13;4.30;;;23.10;69.50;;;;;;4933240;29;20199;-69
2022/04/18 08:33:17;;;;;;;6.32;4.10;;;23.60;68.20;;;;;;4933178;29;20319;-69
2022/04/18 08:35:43;;;;;;;4.68;3.83;;;24.50;67.00;;;;;;4917477;29;20764;-69
2022/04/18 08:38:08;;;;;;;5.85;4.15;;;24.40;65.40;;;;;;4918916;29;20294;-69
2022/04/18 08:40:36;;;;;;;4.60;3.90;;;24.00;66.80;;;;;;4936574;29;20593;-69
2022/04/18 08:43:01;;;;;;;5.32;4.78;;;24.40;66.00;;;;;;4936623;29;20207;-69
2022/04/18 08:45:27;;;;;;;9.10;5.90;;;24.30;65.60;;;;;;4937004;29;20211;-69
2022/04/18 08:53:26;;;;;;;5.80;3.50;;;23.00;67.10;;;;;;4936666;29;20211;-69
2022/04/18 08:55:52;;;;;;;4.40;3.42;;;22.20;67.60;;;;;;4936656;29;20255;-69
2022/04/18 08:58:18;;;;;;;6.18;3.45;;;21.40;69.40;;;;;;4918750;29;20302;-68
2022/04/18 09:00:44;;;;;;;5.15;3.55;;;21.10;70.30;;;;;;4936440;29;20291;-69
2022/04/18 09:03:09;;;;;;;6.30;4.00;;;22.20;70.40;;;;;;4936380;29;20303;-69
2022/04/18 09:05:37;;;;;;;8.20;4.50;;;22.40;69.70;;;;;;4936363;29;20243;-69
2022/04/18 09:08:05;;;;;;;7.78;5.63;;;23.00;69.30;;;;;;4918508;29;20215;-69
2022/04/18 09:10:31;;;;;;;7.30;5.18;;;23.00;69.30;;;;;;4936402;29;20658;-69
2022/04/18 09:13:12;;;;;;;7.75;4.82;;;22.60;68.70;;;;;;4936810;29;20267;-69
2022/04/18 09:15:46;;;;;;;6.18;3.28;;;22.20;70.00;;;;;;4936875;29;20215;-69
2022/04/18 09:18:17;;;;;;;5.60;3.65;;;22.00;69.00;;;;;;4918334;29;20267;-69
2022/04/18 09:20:51;;;;;;;4.80;3.17;;;22.10;69.70;;;;;;4935773;29;20720;-69
2022/04/18 09:23:22;;;;;;;4.97;3.08;;;21.50;69.30;;;;;;4918995;29;20219;-69
2022/04/18 09:25:55;;;;;;;4.00;2.50;;;20.60;70.40;;;;;;4936077;29;20216;-68
2022/04/18 09:28:26;;;;;;;2.90;2.40;;;20.50;70.00;;;;;;4935132;29;20720;-68
2022/04/18 09:31:03;;;;;;;6.30;3.88;;;18.40;72.20;;;;;;4930556;29;20274;-68
2022/04/18 09:33:53;;;;;;;3.30;2.22;;;18.70;75.00;;;;;;4918996;29;20219;-68
2022/04/18 09:36:21;;;;;;;3.50;2.80;;;17.80;73.70;;;;;;4925586;29;20303;-69
2022/04/18 09:38:52;;;;;;;3.72;2.35;;;18.10;74.30;;;;;;4910130;29;20243;-68
2022/04/18 09:41:25;;;;;;;2.35;1.98;;;17.10;75.00;;;;;;4935884;29;20239;-68
2022/04/18 09:43:52;;;;;;;4.05;2.42;;;16.60;76.80;;;;;;4928379;29;20211;-68
2022/04/18 09:46:19;;;;;;;4.90;2.53;;;16.60;77.90;;;;;;4935150;29;20224;-68
2022/04/18 09:48:47;;;;;;;3.53;2.53;;;16.60;79.20;;;;;;4934890;29;20204;-68
2022/04/18 09:51:14;;;;;;;5.43;3.20;;;16.00;80.00;;;;;;4935616;29;20602;-68
2022/04/18 09:53:46;;;;;;;4.90;2.80;;;16.40;80.80;;;;;;4918211;29;20219;-68
2022/04/18 09:56:16;;;;;;;3.95;2.47;;;16.10;80.80;;;;;;4935861;29;20219;-69
2022/04/18 09:58:42;;;;;;;3.72;2.35;;;15.90;80.90;;;;;;4917667;29;20236;-69
2022/04/18 10:01:08;;;;;;;6.70;3.03;;;16.40;81.20;;;;;;4934920;29;20183;-70
2022/04/18 10:03:34;;;;;;;3.42;2.60;;;15.90;81.30;;;;;;4935624;29;20180;-69
2022/04/18 10:06:01;;;;;;;4.10;2.50;;;15.60;81.90;;;;;;4935666;29;20648;-69
2022/04/18 10:08:28;;;;;;;7.13;5.22;;;16.00;82.10;;;;;;4917152;29;20224;-70
2022/04/18 10:10:56;;;;;;;4.97;2.90;;;15.80;82.70;;;;;;4935154;29;20211;-69
2022/04/18 10:13:21;;;;;;;4.32;2.42;;;16.00;82.60;;;;;;4917895;29;20283;-69
2022/04/18 10:15:49;;;;;;;3.65;2.35;;;16.40;82.00;;;;;;4918627;29;20650;-69
2022/04/18 10:18:16;;;;;;;2.88;1.88;;;16.20;81.90;;;;;;4934339;29;20218;-69
2022/04/18 10:21:06;;;;;;;5.20;2.22;;;16.20;82.40;;;;;;4953488;23;20736;-70
2022/04/18 10:24:03;;;;;;;2.90;1.80;;;16.70;81.30;;;;;;4917016;29;20221;-67
2022/04/18 10:27:16;;;;;;;4.07;2.53;;;16.50;81.10;;;;;;4916484;29;20256;-68
2022/04/18 10:29:49;;;;;;;5.15;2.55;;;17.20;81.40;;;;;;4917366;29;20220;-68
2022/04/18 10:32:21;;;;;;;7.18;2.95;;;16.70;81.60;;;;;;4931356;29;20557;-68
2022/04/18 10:34:51;;;;;;;5.75;2.42;;;16.30;83.80;;;;;;4935612;29;20210;-68
2022/04/18 10:37:20;;;;;;;2.78;1.90;;;17.10;83.10;;;;;;4935284;29;20570;-68
2022/04/18 10:40:04;;;;;;;3.80;2.35;;;16.70;80.90;;;;;;4910175;29;20608;-68
2022/04/18 10:42:40;;;;;;;4.55;2.28;;;16.50;82.50;;;;;;4926986;29;20211;-69
2022/04/18 10:45:20;;;;;;;3.28;2.03;;;16.00;83.80;;;;;;4916376;29;20553;-68
2022/04/18 10:47:55;;;;;;;3.42;2.20;;;16.40;84.40;;;;;;4932743;29;20246;-69
2022/04/18 10:50:25;;;;;;;4.05;2.00;;;16.90;82.80;;;;;;4940693;29;20215;-69
2022/04/18 10:53:09;;;;;;;3.50;2.13;;;17.10;81.80;;;;;;4938308;29;20871;-69
2022/04/18 10:56:00;;;;;;;2.85;1.83;;;17.00;82.90;;;;;;4923532;29;20303;-69
2022/04/18 10:58:35;;;;;;;4.55;2.53;;;17.50;82.40;;;;;;4920353;29;20215;-69
2022/04/18 11:01:02;;;;;;;3.33;2.30;;;17.50;82.60;;;;;;4934121;29;20548;-69
2022/04/18 11:03:41;;;;;;;3.95;2.88;;;17.70;82.60;;;;;;4935266;29;20271;-68
2022/04/18 11:06:36;;;;;;;3.75;2.60;;;16.60;83.30;;;;;;4934811;29;20700;-68
2022/04/18 11:09:08;;;;;;;3.33;2.38;;;16.60;84.80;;;;;;4928445;29;20216;-68
2022/04/18 11:11:35;;;;;;;3.33;2.30;;;17.20;84.00;;;;;;4919281;29;20595;-69
2022/04/18 11:14:02;;;;;;;5.00;2.30;;;17.70;83.50;;;;;;4935525;29;20203;-69
2022/04/18 11:16:27;;;;;;;2.22;1.65;;;18.10;81.90;;;;;;4934603;29;20211;-69
2022/04/18 11:19:09;;;;;;;3.35;2.05;;;18.00;81.90;;;;;;4934037;29;20188;-68
2022/04/18 11:24:36;;;;;;;4.05;2.15;;;18.40;80.90;;;;;;4935698;29;20215;-69
2022/04/18 11:27:08;;;;;;;3.80;2.28;;;18.40;80.60;;;;;;4935611;29;20255;-69
2022/04/18 11:29:34;;;;;;;3.10;2.45;;;18.40;80.80;;;;;;4933629;29;20229;-69
2022/04/18 11:32:00;;;;;;;3.28;2.15;;;17.80;81.00;;;;;;4934727;29;20215;-68
2022/04/18 11:34:27;;;;;;;2.15;1.92;;;17.70;81.30;;;;;;4935703;29;20290;-70
2022/04/18 11:36:55;;;;;;;4.63;2.40;;;17.60;81.90;;;;;;4924869;29;20262;-68
2022/04/18 11:39:20;;;;;;;2.63;1.92;;;18.00;81.10;;;;;;4920286;29;20259;-69
2022/04/18 11:41:46;;;;;;;3.90;2.65;;;17.90;80.40;;;;;;4935439;29;20588;-69
2022/04/18 11:44:12;;;;;;;2.40;1.67;;;18.20;80.40;;;;;;4935513;29;20280;-69
2022/04/18 11:46:38;;;;;;;2.33;1.70;;;18.40;79.60;;;;;;4934305;29;20207;-69
2022/04/18 11:49:03;;;;;;;2.35;1.88;;;18.50;79.80;;;;;;4933698;29;20242;-69
2022/04/18 11:51:39;;;;;;;2.95;1.90;;;18.70;79.10;;;;;;4934672;29;20689;-68
2022/04/18 11:54:05;;;;;;;2.65;1.75;;;18.30;80.00;;;;;;4935006;29;20684;-69
2022/04/18 11:56:30;;;;;;;3.53;1.80;;;18.60;80.50;;;;;;4918432;29;20215;-70
2022/04/18 11:58:56;;;;;;;3.53;2.00;;;18.80;80.30;;;;;;4934096;29;20208;-70
2022/04/18 12:06:50;;;;;;;2.30;1.90;;;19.10;78.90;;;;;;4924696;29;20231;-69
2022/04/18 12:09:21;;;;;;;2.97;2.35;;;18.90;78.20;;;;;;4930891;29;20227;-69
2022/04/18 12:11:47;;;;;;;2.88;1.98;;;18.60;78.90;;;;;;4921851;29;20351;-69
2022/04/18 12:14:12;;;;;;;3.65;1.70;;;18.80;79.50;;;;;;4939259;29;20700;-69
2022/04/18 12:16:39;;;;;;;2.60;1.92;;;19.10;79.10;;;;;;4938173;29;20207;-69
2022/04/18 12:19:06;;;;;;;2.92;1.40;;;18.80;78.30;;;;;;4920419;29;20250;-69
2022/04/18 12:21:33;;;;;;;3.53;1.73;;;19.10;78.10;;;;;;4938088;29;20315;-69
2022/04/18 12:24:00;;;;;;;3.35;1.55;;;19.10;78.00;;;;;;4937948;29;20259;-69
2022/04/18 12:26:30;;;;;;;3.38;1.98;;;19.10;78.50;;;;;;4920521;29;20208;-69
2022/04/18 12:29:01;;;;;;;2.35;1.73;;;18.40;78.60;;;;;;4919207;29;20219;-69
2022/04/18 12:31:27;;;;;;;2.65;2.15;;;17.80;79.10;;;;;;4936936;29;20271;-69
2022/04/18 12:33:52;;;;;;;2.28;2.08;;;17.90;81.00;;;;;;4938095;29;20553;-69
2022/04/18 12:36:26;;;;;;;4.68;2.58;;;18.10;80.40;;;;;;4920886;29;20215;-69
2022/04/18 12:38:52;;;;;;;2.58;1.77;;;18.30;80.40;;;;;;4929465;29;20282;-69
2022/04/18 12:41:37;;;;;;;2.10;1.75;;;18.40;79.80;;;;;;4936695;29;20307;-69
2022/04/18 12:44:11;;;;;;;1.52;1.40;;;17.80;79.70;;;;;;4914258;29;20697;-69
2022/04/18 12:46:36;;;;;;;2.63;2.00;;;17.40;80.50;;;;;;4919684;29;20347;-69
2022/04/18 12:49:08;;;;;;;4.10;1.48;;;17.60;81.10;;;;;;4935848;29;20295;-70
2022/04/18 12:51:39;;;;;;;2.30;1.83;;;17.80;81.00;;;;;;4936917;29;20192;-69
2022/04/18 12:54:26;;;;;;;1.92;1.40;;;17.80;79.80;;;;;;4936493;29;20216;-69
2022/04/18 12:56:52;;;;;;;0.95;0.90;;;17.60;78.50;;;;;;4936783;29;20207;-68
2022/04/18 12:59:26;;;;;;;1.95;1.15;;;17.70;79.10;;;;;;4935468;29;20218;-69
2022/04/18 13:01:52;;;;;;;3.53;1.42;;;17.70;78.70;;;;;;4929557;29;20635;-68
2022/04/18 13:04:23;;;;;;;4.60;1.50;;;17.00;79.40;;;;;;4936339;29;20218;-69
2022/04/18 13:07:02;;;;;;;1.25;0.80;;;16.80;79.80;;;;;;4929223;29;20186;-69
2022/04/18 13:09:28;;;;;;;2.28;1.30;;;16.80;80.00;;;;;;4918955;29;20283;-68
2022/04/18 13:12:01;;;;;;;2.38;1.30;;;16.80;79.90;;;;;;4919330;29;20586;-69